sensor_id;sensor_type;location;lat;lon;timestamp;pressure;altitude;pressure_sealevel;temperature;humidity
5679;BME280;2862;52.560;13.566;2023-01-29T00:02:25;101809.06;;;0.38;78.98
5679;BME280;2862;52.560;13.566;2023-01-29T00:12:28;101806.59;;;0.32;79.39
5679;BME280;2862;52.560;13.566;2023-01-29T00:22:33;101804.19;;;0.21;80.21
5679;BME280;2862;52.560;13.566;2023-01-29T00:32:36;101802.56;;;0.17;80.70
5679;BME280;2862;52.560;13.566;2023-01-29T00:42:40;101775.16;;;0.26;80.95
5679;BME280;2862;52.560;13.566;2023-01-29T00:53:04;101769.94;;;0.24;81.07
5679;BME280;2862;52.560;13.566;2023-01-29T01:03:09;101773.03;;;0.42;80.76
5679;BME280;2862;52.560;13.566;2023-01-29T01:13:13;101771.31;;;0.41;81.16
5679;BME280;2862;52.560;13.566;2023-01-29T01:23:18;101759.31;;;0.29;81.70
5679;BME280;2862;52.560;13.566;2023-01-29T01:33:22;101768.50;;;0.48;81.65
5679;BME280;2862;52.560;13.566;2023-01-29T01:43:26;101760.59;;;0.48;82.14
5679;BME280;2862;52.560;13.566;2023-01-29T01:53:34;101772.84;;;0.49;82.69
5679;BME280;2862;52.560;13.566;2023-01-29T02:03:43;101763.28;;;0.45;84.22
5679;BME280;2862;52.560;13.566;2023-01-29T02:14:07;101737.56;;;0.57;84.33
5679;BME280;2862;52.560;13.566;2023-01-29T02:24:26;101739.50;;;0.50;85.46
5679;BME280;2862;52.560;13.566;2023-01-29T02:34:46;101725.47;;;0.49;85.96
5679;BME280;2862;52.560;13.566;2023-01-29T02:45:10;101734.06;;;0.58;85.60
5679;BME280;2862;52.560;13.566;2023-01-29T02:55:20;101730.53;;;0.57;85.58
5679;BME280;2862;52.560;13.566;2023-01-29T03:05:28;101709.50;;;0.57;85.97
5679;BME280;2862;52.560;13.566;2023-01-29T03:15:39;101711.41;;;0.50;86.38
5679;BME280;2862;52.560;13.566;2023-01-29T03:26:05;101703.19;;;0.64;86.28
5679;BME280;2862;52.560;13.566;2023-01-29T03:36:31;101690.84;;;0.66;86.80
5679;BME280;2862;52.560;13.566;2023-01-29T03:46:45;101672.56;;;0.60;88.44
5679;BME280;2862;52.560;13.566;2023-01-29T03:56:56;101650.41;;;0.69;88.46
5679;BME280;2862;52.560;13.566;2023-01-29T04:07:08;101627.78;;;0.62;89.84
5679;BME280;2862;52.560;13.566;2023-01-29T04:17:16;101606.88;;;0.57;89.71
5679;BME280;2862;52.560;13.566;2023-01-29T04:27:42;101600.06;;;0.50;89.75
5679;BME280;2862;52.560;13.566;2023-01-29T04:37:55;101592.28;;;0.45;90.86
5679;BME280;2862;52.560;13.566;2023-01-29T04:48:11;101598.25;;;0.52;91.65
5679;BME280;2862;52.560;13.566;2023-01-29T04:58:25;101608.72;;;0.53;93.67
5679;BME280;2862;52.560;13.566;2023-01-29T05:08:30;101610.50;;;0.53;95.28
5679;BME280;2862;52.560;13.566;2023-01-29T05:18:35;101607.88;;;0.53;98.23
5679;BME280;2862;52.560;13.566;2023-01-29T05:28:38;101607.13;;;0.48;100.00
5679;BME280;2862;52.560;13.566;2023-01-29T05:38:43;101605.38;;;0.48;100.00
5679;BME280;2862;52.560;13.566;2023-01-29T05:48:46;101606.41;;;0.43;100.00
5679;BME280;2862;52.560;13.566;2023-01-29T05:58:51;101611.31;;;0.55;100.00
5679;BME280;2862;52.560;13.566;2023-01-29T06:08:54;101628.47;;;0.68;100.00
5679;BME280;2862;52.560;13.566;2023-01-29T06:18:58;101631.44;;;0.58;100.00
5679;BME280;2862;52.560;13.566;2023-01-29T06:29:02;101620.69;;;0.65;100.00
5679;BME280;2862;52.560;13.566;2023-01-29T06:39:06;101604.72;;;0.71;100.00
5679;BME280;2862;52.560;13.566;2023-01-29T06:49:09;101616.97;;;0.72;100.00
5679;BME280;2862;52.560;13.566;2023-01-29T06:59:14;101637.22;;;0.70;100.00
5679;BME280;2862;52.560;13.566;2023-01-29T07:09:17;101616.19;;;0.69;100.00
5679;BME280;2862;52.560;13.566;2023-01-29T07:19:21;101616.84;;;0.77;100.00
5679;BME280;2862;52.560;13.566;2023-01-29T07:29:24;101637.69;;;0.85;100.00
5679;BME280;2862;52.560;13.566;2023-01-29T07:39:29;101612.22;;;0.85;100.00
5679;BME280;2862;52.560;13.566;2023-01-29T07:49:45;101592.81;;;0.89;100.00
5679;BME280;2862;52.560;13.566;2023-01-29T08:00:05;101589.16;;;1.51;100.00
5679;BME280;2862;52.560;13.566;2023-01-29T08:10:15;101579.69;;;1.72;100.00
5679;BME280;2862;52.560;13.566;2023-01-29T08:20:21;101579.34;;;1.28;100.00
5679;BME280;2862;52.560;13.566;2023-01-29T08:30:25;101587.47;;;1.20;100.00
5679;BME280;2862;52.560;13.566;2023-01-29T08:40:33;101567.56;;;1.12;100.00
5679;BME280;2862;52.560;13.566;2023-01-29T08:50:36;101577.84;;;1.19;100.00
5679;BME280;2862;52.560;13.566;2023-01-29T09:00:48;101561.84;;;1.25;100.00
5679;BME280;2862;52.560;13.566;2023-01-29T09:10:51;101560.38;;;1.45;100.00
5679;BME280;2862;52.560;13.566;2023-01-29T09:20:56;101549.69;;;1.49;100.00
5679;BME280;2862;52.560;13.566;2023-01-29T09:31:00;101568.22;;;1.46;100.00
5679;BME280;2862;52.560;13.566;2023-01-29T09:41:15;101546.75;;;1.58;100.00
5679;BME280;2862;52.560;13.566;2023-01-29T09:51:27;101529.66;;;1.70;100.00
5679;BME280;2862;52.560;13.566;2023-01-29T10:01:41;101522.47;;;1.75;100.00
5679;BME280;2862;52.560;13.566;2023-01-29T10:11:53;101514.25;;;1.84;100.00
5679;BME280;2862;52.560;13.566;2023-01-29T10:22:18;101494.06;;;2.08;100.00
5679;BME280;2862;52.560;13.566;2023-01-29T10:32:29;101506.59;;;2.27;99.85
5679;BME280;2862;52.560;13.566;2023-01-29T10:42:40;101499.47;;;2.52;98.34
5679;BME280;2862;52.560;13.566;2023-01-29T10:53:00;101477.91;;;2.64;97.55
5679;BME280;2862;52.560;13.566;2023-01-29T11:03:14;101438.44;;;3.05;94.89
5679;BME280;2862;52.560;13.566;2023-01-29T11:13:31;101433.59;;;3.37;92.63
5679;BME280;2862;52.560;13.566;2023-01-29T11:23:38;101415.38;;;3.71;90.78
5679;BME280;2862;52.560;13.566;2023-01-29T11:33:41;101407.72;;;4.05;87.93
5679;BME280;2862;52.560;13.566;2023-01-29T11:43:46;101396.75;;;3.75;88.33
5679;BME280;2862;52.560;13.566;2023-01-29T11:53:51;101386.25;;;3.73;87.70
5679;BME280;2862;52.560;13.566;2023-01-29T12:03:57;101379.59;;;3.83;87.13
5679;BME280;2862;52.560;13.566;2023-01-29T12:14:03;101342.94;;;3.94;86.79
5679;BME280;2862;52.560;13.566;2023-01-29T12:24:13;101342.44;;;4.05;86.40
5679;BME280;2862;52.560;13.566;2023-01-29T12:34:29;101328.47;;;3.83;85.59
5679;BME280;2862;52.560;13.566;2023-01-29T12:44:40;101304.09;;;3.76;86.18
5679;BME280;2862;52.560;13.566;2023-01-29T12:54:52;101313.81;;;3.57;85.99
5679;BME280;2862;52.560;13.566;2023-01-29T13:05:12;101312.28;;;3.51;86.55
5679;BME280;2862;52.560;13.566;2023-01-29T13:15:27;101293.59;;;3.35;87.23
5679;BME280;2862;52.560;13.566;2023-01-29T13:25:33;101282.28;;;3.52;87.43
5679;BME280;2862;52.560;13.566;2023-01-29T13:35:38;101272.56;;;3.53;86.90
5679;BME280;2862;52.560;13.566;2023-01-29T13:45:44;101268.94;;;3.35;89.08
5679;BME280;2862;52.560;13.566;2023-01-29T13:55:48;101263.66;;;3.35;89.38
5679;BME280;2862;52.560;13.566;2023-01-29T14:06:00;101254.69;;;3.18;90.14
5679;BME280;2862;52.560;13.566;2023-01-29T14:16:34;101245.63;;;3.24;89.83
5679;BME280;2862;52.560;13.566;2023-01-29T14:26:42;101237.59;;;3.27;90.61
5679;BME280;2862;52.560;13.566;2023-01-29T14:36:52;101240.44;;;3.02;94.93
5679;BME280;2862;52.560;13.566;2023-01-29T14:46:58;101234.94;;;2.86;97.14
5679;BME280;2862;52.560;13.566;2023-01-29T14:57:03;101218.28;;;2.65;98.42
5679;BME280;2862;52.560;13.566;2023-01-29T15:07:21;101213.44;;;2.55;100.00
5679;BME280;2862;52.560;13.566;2023-01-29T15:17:29;101202.34;;;2.47;100.00
5679;BME280;2862;52.560;13.566;2023-01-29T15:27:40;101191.00;;;2.45;100.00
5679;BME280;2862;52.560;13.566;2023-01-29T15:37:57;101180.09;;;2.32;100.00
5679;BME280;2862;52.560;13.566;2023-01-29T15:48:04;101168.88;;;2.27;100.00
5679;BME280;2862;52.560;13.566;2023-01-29T15:58:14;101155.09;;;2.20;100.00
5679;BME280;2862;52.560;13.566;2023-01-29T16:08:20;101148.03;;;2.21;100.00
5679;BME280;2862;52.560;13.566;2023-01-29T16:18:27;101144.59;;;2.19;100.00
5679;BME280;2862;52.560;13.566;2023-01-29T16:28:32;101147.28;;;2.17;100.00
5679;BME280;2862;52.560;13.566;2023-01-29T16:38:37;101133.84;;;2.23;100.00
5679;BME280;2862;52.560;13.566;2023-01-29T16:48:45;101134.94;;;2.18;100.00
5679;BME280;2862;52.560;13.566;2023-01-29T16:58:49;101131.19;;;2.23;100.00
5679;BME280;2862;52.560;13.566;2023-01-29T17:08:54;101118.81;;;2.25;100.00
5679;BME280;2862;52.560;13.566;2023-01-29T17:18:58;101109.13;;;2.26;99.93
5679;BME280;2862;52.560;13.566;2023-01-29T17:29:02;101100.28;;;2.27;100.00
5679;BME280;2862;52.560;13.566;2023-01-29T17:39:17;101091.69;;;2.22;100.00
5679;BME280;2862;52.560;13.566;2023-01-29T17:49:23;101067.56;;;2.10;100.00
5679;BME280;2862;52.560;13.566;2023-01-29T17:59:29;101037.63;;;2.11;100.00
5679;BME280;2862;52.560;13.566;2023-01-29T18:09:38;101018.63;;;2.03;100.00
5679;BME280;2862;52.560;13.566;2023-01-29T18:19:43;101011.84;;;1.98;100.00
5679;BME280;2862;52.560;13.566;2023-01-29T18:29:49;101000.56;;;1.94;100.00
5679;BME280;2862;52.560;13.566;2023-01-29T18:39:53;100989.03;;;1.97;98.93
5679;BME280;2862;52.560;13.566;2023-01-29T18:49:57;100976.91;;;1.93;99.16
5679;BME280;2862;52.560;13.566;2023-01-29T19:00:00;100969.84;;;1.93;98.33
5679;BME280;2862;52.560;13.566;2023-01-29T19:10:09;100963.47;;;1.99;97.77
5679;BME280;2862;52.560;13.566;2023-01-29T19:20:13;100953.75;;;1.99;97.16
5679;BME280;2862;52.560;13.566;2023-01-29T19:30:20;100928.41;;;1.97;97.04
5679;BME280;2862;52.560;13.566;2023-01-29T19:40:23;100905.88;;;1.90;97.17
5679;BME280;2862;52.560;13.566;2023-01-29T19:50:27;100884.31;;;1.80;98.33
5679;BME280;2862;52.560;13.566;2023-01-29T20:00:33;100886.09;;;1.79;98.51
5679;BME280;2862;52.560;13.566;2023-01-29T20:10:37;100881.25;;;1.89;96.70
5679;BME280;2862;52.560;13.566;2023-01-29T20:20:41;100840.00;;;1.88;95.62
5679;BME280;2862;52.560;13.566;2023-01-29T20:30:45;100824.38;;;1.83;95.52
5679;BME280;2862;52.560;13.566;2023-01-29T20:40:48;100821.25;;;1.75;96.73
5679;BME280;2862;52.560;13.566;2023-01-29T20:50:52;100795.91;;;1.73;96.03
5679;BME280;2862;52.560;13.566;2023-01-29T21:00:59;100784.75;;;1.66;96.11
5679;BME280;2862;52.560;13.566;2023-01-29T21:11:04;100750.66;;;1.63;96.39
5679;BME280;2862;52.560;13.566;2023-01-29T21:21:19;100740.19;;;1.62;96.72
5679;BME280;2862;52.560;13.566;2023-01-29T21:31:26;100718.25;;;1.61;96.53
5679;BME280;2862;52.560;13.566;2023-01-29T21:41:37;100698.25;;;1.57;96.70
5679;BME280;2862;52.560;13.566;2023-01-29T21:51:59;100680.44;;;1.62;96.12
5679;BME280;2862;52.560;13.566;2023-01-29T22:02:02;100667.28;;;1.62;95.52
5679;BME280;2862;52.560;13.566;2023-01-29T22:12:09;100653.53;;;1.55;95.68
5679;BME280;2862;52.560;13.566;2023-01-29T22:22:27;100632.38;;;1.57;95.73
5679;BME280;2862;52.560;13.566;2023-01-29T22:32:41;100608.78;;;1.54;95.44
5679;BME280;2862;52.560;13.566;2023-01-29T22:42:49;100584.22;;;1.53;95.34
5679;BME280;2862;52.560;13.566;2023-01-29T22:53:01;100554.31;;;1.54;94.74
5679;BME280;2862;52.560;13.566;2023-01-29T23:03:08;100528.84;;;1.55;93.86
5679;BME280;2862;52.560;13.566;2023-01-29T23:13:22;100521.00;;;1.53;93.07
5679;BME280;2862;52.560;13.566;2023-01-29T23:23:33;100484.19;;;1.52;92.05
5679;BME280;2862;52.560;13.566;2023-01-29T23:33:43;100481.41;;;1.55;91.75
5679;BME280;2862;52.560;13.566;2023-01-29T23:43:46;100448.00;;;1.55;91.02
5679;BME280;2862;52.560;13.566;2023-01-29T23:53:51;100445.91;;;1.62;90.70
